Time;durP1;ratioP1;P1;durP2;ratioP2;P2;SDS_P1;SDS_P2;PMS_P1;PMS_P2;Temp;Humidity;BMP_temperature;BMP_pressure;BME280_temperature;BME280_humidity;BME280_pressure;Samples;Min_cycle;Max_cycle;Signal;HPM_P1;HPM_P2
2021/10/17 00:01:33;;;;;;;34.85;14.33;;;;;;;8.84;100.00;101086.01;1716341;82;20885;-87
2021/10/17 00:03:59;;;;;;;38.02;14.50;;;;;;;8.88;100.00;101079.62;1713974;82;21052;-88
2021/10/17 00:06:28;;;;;;;35.63;14.75;;;;;;;8.91;100.00;101082.38;1713917;83;21957;-88
2021/10/17 00:08:53;;;;;;;37.78;15.68;;;;;;;8.90;100.00;101083.44;1713484;82;20988;-87
2021/10/17 00:11:19;;;;;;;37.23;15.18;;;;;;;8.88;100.00;101085.00;1713385;82;21588;-88
2021/10/17 00:13:45;;;;;;;33.58;14.10;;;;;;;8.87;100.00;101081.50;1713658;83;21181;-87
2021/10/17 00:16:11;;;;;;;33.00;13.22;;;;;;;8.89;100.00;101079.12;1713763;82;21128;-87
2021/10/17 00:18:36;;;;;;;31.87;12.90;;;;;;;8.91;100.00;101083.19;1713829;83;21129;-86
2021/10/17 00:21:02;;;;;;;35.20;12.73;;;;;;;8.93;100.00;101082.43;1713318;82;20955;-86
2021/10/17 00:23:28;;;;;;;30.97;12.78;;;;;;;8.94;100.00;101080.05;1713666;82;20892;-87
2021/10/17 00:25:54;;;;;;;30.90;12.63;;;;;;;8.94;100.00;101081.40;1713556;82;20853;-87
2021/10/17 00:28:20;;;;;;;29.40;12.90;;;;;;;8.92;100.00;101079.47;1713594;83;21011;-86
2021/10/17 00:30:46;;;;;;;42.17;13.28;;;;;;;8.92;100.00;101076.77;1714064;82;21099;-87
2021/10/17 00:33:12;;;;;;;29.10;11.83;;;;;;;8.94;100.00;101074.67;1713792;83;20884;-87
2021/10/17 00:35:38;;;;;;;32.00;12.37;;;;;;;8.96;100.00;101075.23;1713714;83;21031;-87
2021/10/17 00:38:04;;;;;;;35.70;13.40;;;;;;;8.95;100.00;101066.89;1713944;83;20980;-87
2021/10/17 00:40:30;;;;;;;35.30;13.55;;;;;;;8.91;100.00;101071.09;1713752;82;20878;-88
2021/10/17 00:42:56;;;;;;;26.48;11.95;;;;;;;8.92;100.00;101071.40;1713884;83;21071;-87
2021/10/17 00:45:29;;;;;;;32.93;13.30;;;;;;;8.91;100.00;101069.75;1713691;83;21543;-87
2021/10/17 00:47:56;;;;;;;29.75;12.25;;;;;;;8.85;100.00;101070.20;1713711;83;20968;-88
2021/10/17 00:50:23;;;;;;;35.13;12.68;;;;;;;8.77;100.00;101061.67;1713978;82;21023;-87
2021/10/17 00:52:49;;;;;;;30.40;12.95;;;;;;;8.76;100.00;101076.14;1713995;82;20981;-87
2021/10/17 00:55:17;;;;;;;32.48;13.35;;;;;;;8.71;100.00;101070.69;1723090;83;21163;-87
2021/10/17 00:57:45;;;;;;;33.45;13.08;;;;;;;8.68;100.00;101063.06;1734751;82;20991;-86
2021/10/17 01:00:14;;;;;;;33.05;11.88;;;;;;;8.64;100.00;101060.84;1727925;82;21004;-86
2021/10/17 01:02:40;;;;;;;33.38;13.35;;;;;;;8.63;100.00;101064.59;1726823;82;21363;-87
2021/10/17 01:05:13;;;;;;;34.65;13.93;;;;;;;8.63;100.00;101061.09;1726658;82;21055;-86
2021/10/17 01:07:38;;;;;;;35.78;13.78;;;;;;;8.64;100.00;101059.50;1725878;82;21085;-87
2021/10/17 01:10:05;;;;;;;33.50;13.85;;;;;;;8.62;100.00;101061.63;1726866;83;20951;-87
2021/10/17 01:12:31;;;;;;;44.18;14.18;;;;;;;8.66;100.00;101063.31;1726744;83;21070;-87
2021/10/17 01:14:57;;;;;;;34.67;13.95;;;;;;;8.68;100.00;101066.59;1726996;83;21597;-87
2021/10/17 01:17:22;;;;;;;34.40;13.53;;;;;;;8.71;100.00;101058.06;1726927;82;20897;-87
2021/10/17 01:19:48;;;;;;;36.03;14.03;;;;;;;8.74;100.00;101064.84;1726732;82;21095;-87
2021/10/17 01:22:18;;;;;;;35.00;13.22;;;;;;;8.76;100.00;101068.08;1726745;82;21224;-87
2021/10/17 01:24:44;;;;;;;34.85;13.25;;;;;;;8.77;100.00;101065.70;1726954;82;21499;-87
2021/10/17 01:27:10;;;;;;;38.53;13.50;;;;;;;8.78;100.00;101067.33;1726939;81;20861;-87
2021/10/17 01:29:35;;;;;;;37.63;13.78;;;;;;;8.78;100.00;101065.98;1726700;82;20874;-88
2021/10/17 01:32:01;;;;;;;34.85;13.08;;;;;;;8.80;100.00;101065.23;1726928;82;22008;-87
2021/10/17 01:34:27;;;;;;;35.33;14.28;;;;;;;8.81;100.00;101060.95;1726713;83;20996;-88
2021/10/17 01:36:54;;;;;;;35.30;13.40;;;;;;;8.81;100.00;101071.70;1726608;82;21106;-88
2021/10/17 01:39:23;;;;;;;37.17;13.50;;;;;;;8.79;100.00;101068.95;1726889;82;21000;-87
2021/10/17 01:41:49;;;;;;;35.63;13.13;;;;;;;8.75;100.00;101062.43;1726909;81;21050;-87
2021/10/17 01:44:26;;;;;;;32.58;13.05;;;;;;;8.71;100.00;101068.81;1726857;83;21957;-86
2021/10/17 01:46:53;;;;;;;33.35;13.45;;;;;;;8.70;100.00;101071.19;1727640;82;21083;-87
2021/10/17 01:49:20;;;;;;;36.80;13.50;;;;;;;8.69;100.00;101070.09;1726814;82;21004;-87
2021/10/17 01:51:46;;;;;;;30.68;13.40;;;;;;;8.68;100.00;101067.94;1727234;83;21554;-87
2021/10/17 01:54:13;;;;;;;35.78;13.72;;;;;;;8.66;100.00;101067.87;1726872;83;21119;-87
2021/10/17 01:56:39;;;;;;;37.88;13.83;;;;;;;8.63;100.00;101069.16;1727029;83;21058;-86
2021/10/17 01:59:05;;;;;;;34.45;12.98;;;;;;;8.60;100.00;101068.29;1726993;83;21027;-87
2021/10/17 02:01:31;;;;;;;34.92;13.13;;;;;;;8.58;100.00;101073.07;1726898;82;22124;-87
2021/10/17 02:04:00;;;;;;;31.15;13.45;;;;;;;8.58;100.00;101070.38;1710490;83;20888;-87
2021/10/17 02:06:28;;;;;;;33.00;13.60;;;;;;;8.56;100.00;101073.32;1711638;83;21090;-87
2021/10/17 02:08:56;;;;;;;33.85;13.28;;;;;;;8.54;100.00;101074.07;1719628;82;21147;-86
2021/10/17 02:11:21;;;;;;;31.73;12.53;;;;;;;8.51;100.00;101076.41;1729279;82;21015;-87
2021/10/17 02:13:47;;;;;;;30.52;13.05;;;;;;;8.47;100.00;101075.23;1740490;82;21614;-86
2021/10/17 02:16:13;;;;;;;32.13;13.80;;;;;;;8.40;100.00;101076.16;1722667;82;21222;-87
2021/10/17 02:18:39;;;;;;;34.50;12.65;;;;;;;8.30;100.00;101084.50;1715196;82;20928;-87
2021/10/17 02:21:05;;;;;;;34.67;12.90;;;;;;;8.12;100.00;101076.83;1718185;82;21689;-88
2021/10/17 02:23:32;;;;;;;28.10;12.93;;;;;;;8.10;100.00;101084.28;1741204;82;20959;-87
2021/10/17 02:25:58;;;;;;;31.80;12.33;;;;;;;8.03;100.00;101081.40;1716881;82;21426;-87
2021/10/17 02:28:24;;;;;;;33.55;12.82;;;;;;;7.96;100.00;101089.56;1741127;82;20960;-87
2021/10/17 02:30:50;;;;;;;28.98;11.73;;;;;;;7.89;100.00;101083.49;1741234;82;21047;-86
2021/10/17 02:33:16;;;;;;;30.70;12.63;;;;;;;7.78;100.00;101085.09;1741341;82;21745;-86
2021/10/17 02:35:44;;;;;;;29.67;11.97;;;;;;;7.70;100.00;101078.17;1741190;82;21520;-85
2021/10/17 02:38:10;;;;;;;34.18;12.53;;;;;;;7.72;100.00;101080.11;1726293;83;21011;-87
2021/10/17 02:40:36;;;;;;;32.15;12.50;;;;;;;7.67;100.00;101080.50;1698821;83;21706;-87
2021/10/17 02:43:03;;;;;;;32.17;13.18;;;;;;;7.57;100.00;101079.72;1716998;83;20912;-87
2021/10/17 02:45:29;;;;;;;31.50;12.58;;;;;;;7.51;100.00;101079.28;1716033;83;21054;-88
2021/10/17 02:47:55;;;;;;;31.87;12.68;;;;;;;7.46;100.00;101081.82;1696904;84;21022;-87
2021/10/17 02:50:21;;;;;;;32.95;12.58;;;;;;;7.47;100.00;101080.77;1696419;84;21007;-87
2021/10/17 02:52:47;;;;;;;31.48;12.82;;;;;;;7.38;100.00;101086.16;1709459;83;21101;-87
2021/10/17 02:55:13;;;;;;;33.40;12.88;;;;;;;7.35;100.00;101087.42;1707817;83;20996;-88
2021/10/17 02:57:39;;;;;;;35.35;14.80;;;;;;;7.26;100.00;101093.64;1676949;84;20954;-87
2021/10/17 03:00:06;;;;;;;37.98;14.70;;;;;;;7.17;100.00;101098.17;1665693;85;20884;-87
2021/10/17 03:02:33;;;;;;;31.93;13.85;;;;;;;7.11;100.00;101094.52;1667835;85;21062;-88
2021/10/17 03:04:59;;;;;;;38.08;14.80;;;;;;;7.11;100.00;101091.84;1672595;85;21070;-87
2021/10/17 03:07:25;;;;;;;42.38;15.10;;;;;;;7.12;100.00;101100.20;1668692;85;21649;-87
2021/10/17 03:09:50;;;;;;;34.80;14.75;;;;;;;7.13;100.00;101090.30;1662886;85;21155;-87
2021/10/17 03:12:16;;;;;;;35.15;15.50;;;;;;;7.11;100.00;101089.16;1650689;86;20883;-87
2021/10/17 03:14:42;;;;;;;39.27;14.75;;;;;;;7.07;100.00;101085.31;1652565;85;20982;-87
2021/10/17 03:17:08;;;;;;;41.98;17.70;;;;;;;7.01;100.00;101081.66;1678466;85;20936;-87
2021/10/17 03:19:34;;;;;;;49.18;18.52;;;;;;;6.95;100.00;101087.10;1666368;85;20991;-89
2021/10/17 03:22:00;;;;;;;40.67;17.15;;;;;;;6.95;100.00;101087.92;1650855;86;21057;-87
2021/10/17 03:24:26;;;;;;;47.98;17.87;;;;;;;6.95;100.00;101088.44;1650629;86;20900;-88
2021/10/17 03:26:51;;;;;;;47.83;17.10;;;;;;;6.94;100.00;101087.63;1651018;86;20971;-87
2021/10/17 03:29:17;;;;;;;51.58;18.00;;;;;;;6.90;100.00;101087.77;1659088;85;21014;-88
2021/10/17 03:31:43;;;;;;;42.98;17.52;;;;;;;6.87;100.00;101084.19;1678406;85;21415;-87
2021/10/17 03:34:10;;;;;;;49.38;18.45;;;;;;;6.87;100.00;101084.71;1683440;83;21168;-86
2021/10/17 03:36:36;;;;;;;47.55;18.40;;;;;;;6.84;100.00;101089.99;1690389;83;21137;-87
2021/10/17 03:39:03;;;;;;;41.90;17.73;;;;;;;6.83;100.00;101087.84;1718677;83;20970;-87
2021/10/17 03:41:29;;;;;;;42.58;16.48;;;;;;;6.83;100.00;101082.48;1718739;83;22146;-87
2021/10/17 03:43:55;;;;;;;49.08;17.85;;;;;;;6.80;100.00;101078.91;1718716;83;20879;-87
2021/10/17 03:46:21;;;;;;;44.93;17.48;;;;;;;6.74;100.00;101083.01;1719158;83;21002;-87
2021/10/17 03:48:47;;;;;;;50.73;18.98;;;;;;;6.59;100.00;101064.62;1718663;83;21559;-87
2021/10/17 03:51:13;;;;;;;47.83;18.87;;;;;;;6.69;100.00;101089.55;1690536;83;21051;-87
2021/10/17 03:53:39;;;;;;;53.90;18.10;;;;;;;6.67;100.00;101090.27;1718866;83;20947;-87
2021/10/17 03:56:05;;;;;;;44.88;18.27;;;;;;;6.65;100.00;101088.33;1746443;81;21693;-86
2021/10/17 03:58:31;;;;;;;43.15;18.05;;;;;;;6.64;100.00;101091.53;1756538;81;21012;-87
2021/10/17 04:00:57;;;;;;;46.20;18.25;;;;;;;6.59;100.00;101090.87;1753534;81;21185;-86
2021/10/17 04:03:23;;;;;;;42.10;16.62;;;;;;;6.62;100.00;101096.80;1756529;81;21768;-86
2021/10/17 04:05:49;;;;;;;42.48;17.15;;;;;;;6.60;100.00;101100.53;1756033;81;20936;-86
2021/10/17 04:08:15;;;;;;;45.80;17.65;;;;;;;6.62;100.00;101105.69;1756566;81;20873;-87
2021/10/17 04:10:40;;;;;;;43.23;17.85;;;;;;;6.63;100.00;101103.30;1756422;81;21123;-86
2021/10/17 04:13:06;;;;;;;46.88;16.12;;;;;;;6.64;100.00;101105.45;1756115;81;20869;-86
2021/10/17 04:15:35;;;;;;;47.20;16.97;;;;;;;6.64;100.00;101105.45;1743724;81;21061;-86
2021/10/17 04:18:00;;;;;;;44.63;17.30;;;;;;;6.61;100.00;101104.02;1744385;81;21547;-86
2021/10/17 04:20:26;;;;;;;43.55;17.32;;;;;;;6.68;100.00;101109.34;1737252;81;20873;-87
2021/10/17 04:22:52;;;;;;;43.70;16.60;;;;;;;6.59;100.00;101088.72;1737532;81;21099;-86
2021/10/17 04:25:18;;;;;;;37.95;16.30;;;;;;;6.75;100.00;101107.41;1736434;81;20844;-86
2021/10/17 04:27:43;;;;;;;32.30;14.55;;;;;;;6.80;100.00;101104.88;1726667;82;20950;-86
2021/10/17 04:30:10;;;;;;;46.35;16.35;;;;;;;6.86;100.00;101106.67;1717064;82;20880;-87
2021/10/17 04:32:36;;;;;;;40.60;15.40;;;;;;;6.93;100.00;101098.55;1727078;82;20999;-86
2021/10/17 04:35:02;;;;;;;37.10;15.38;;;;;;;6.95;100.00;101107.20;1726872;83;21083;-86
2021/10/17 04:37:29;;;;;;;39.27;16.05;;;;;;;6.99;100.00;101100.34;1726749;83;21031;-86
2021/10/17 04:39:56;;;;;;;38.58;15.40;;;;;;;7.07;100.00;101104.59;1726323;83;20991;-86
2021/10/17 04:42:22;;;;;;;32.10;14.13;;;;;;;7.13;100.00;101109.05;1726652;83;21031;-87
2021/10/17 04:44:48;;;;;;;38.55;15.65;;;;;;;7.17;100.00;101105.69;1726773;83;20954;-87
2021/10/17 04:47:14;;;;;;;40.90;16.27;;;;;;;7.25;100.00;101116.11;1726706;81;21626;-87
2021/10/17 04:49:39;;;;;;;39.45;16.32;;;;;;;7.32;100.00;101116.02;1726544;83;20978;-87
2021/10/17 04:52:06;;;;;;;37.75;16.80;;;;;;;7.43;100.00;101122.50;1726930;83;20903;-88
2021/10/17 04:54:31;;;;;;;42.05;16.82;;;;;;;7.54;100.00;101119.59;1726488;83;21070;-87
2021/10/17 04:56:57;;;;;;;44.77;17.12;;;;;;;7.62;100.00;101121.43;1721507;83;20908;-87
2021/10/17 04:59:23;;;;;;;43.45;17.12;;;;;;;7.78;100.00;101126.67;1721556;83;21806;-86
2021/10/17 05:01:50;;;;;;;36.53;15.90;;;;;;;7.90;100.00;101126.18;1721533;83;20904;-87
2021/10/17 05:04:18;;;;;;;33.95;15.60;;;;;;;8.03;100.00;101124.34;1721787;83;21008;-86
2021/10/17 05:06:44;;;;;;;38.23;15.55;;;;;;;8.13;100.00;101124.09;1721460;83;21091;-86
2021/10/17 05:09:10;;;;;;;37.70;15.25;;;;;;;8.26;100.00;101123.05;1721519;83;20980;-87
2021/10/17 05:11:36;;;;;;;39.63;16.07;;;;;;;8.35;100.00;101123.53;1724921;82;21067;-90
2021/10/17 05:14:03;;;;;;;38.00;16.20;;;;;;;8.45;100.00;101121.66;1722463;82;21587;-87
2021/10/17 05:16:28;;;;;;;41.23;16.23;;;;;;;8.53;100.00;101124.83;1721492;83;21101;-87
2021/10/17 05:18:54;;;;;;;36.15;16.07;;;;;;;8.62;100.00;101127.45;1721702;83;20892;-86
2021/10/17 05:21:20;;;;;;;40.55;16.20;;;;;;;8.72;100.00;101129.55;1721784;83;21752;-86
2021/10/17 05:23:46;;;;;;;42.05;16.48;;;;;;;8.81;100.00;101124.11;1724494;82;21209;-87
2021/10/17 05:26:12;;;;;;;37.63;15.80;;;;;;;8.89;100.00;101129.66;1738121;82;20845;-87
2021/10/17 05:28:38;;;;;;;40.80;16.70;;;;;;;8.97;100.00;101124.43;1743985;82;21031;-87
2021/10/17 05:31:03;;;;;;;39.30;16.48;;;;;;;9.06;100.00;101132.45;1745950;82;20873;-87
2021/10/17 05:33:30;;;;;;;42.43;17.50;;;;;;;9.16;100.00;101125.93;1742895;82;21757;-86
2021/10/17 05:35:57;;;;;;;43.95;17.98;;;;;;;9.27;100.00;101124.28;1726955;81;21084;-87
2021/10/17 05:38:23;;;;;;;38.40;16.25;;;;;;;9.38;100.00;101127.44;1751407;82;21579;-86
2021/10/17 05:40:49;;;;;;;42.00;16.42;;;;;;;9.48;100.00;101126.84;1751755;82;20897;-86
2021/10/17 05:43:15;;;;;;;39.67;16.48;;;;;;;9.59;100.00;101124.65;1744686;82;20884;-87
2021/10/17 05:45:41;;;;;;;38.85;15.85;;;;;;;9.73;100.00;101124.63;1751485;82;20984;-87
2021/10/17 05:48:06;;;;;;;41.80;16.40;;;;;;;9.86;100.00;101132.14;1747211;82;21207;-87
2021/10/17 05:50:32;;;;;;;41.18;16.25;;;;;;;10.03;100.00;101137.02;1733760;81;20888;-88
2021/10/17 05:53:00;;;;;;;35.68;15.48;;;;;;;10.20;100.00;101139.72;1750868;82;22284;-87
2021/10/17 05:55:26;;;;;;;35.13;15.08;;;;;;;10.38;100.00;101139.53;1752150;81;21551;-87
2021/10/17 05:57:51;;;;;;;32.05;14.40;;;;;;;10.56;100.00;101139.81;1757051;81;20909;-87
2021/10/17 06:00:18;;;;;;;38.75;14.30;;;;;;;10.79;100.00;101139.31;1756559;81;21148;-88
2021/10/17 06:02:44;;;;;;;34.70;13.80;;;;;;;11.02;100.00;101140.45;1749318;81;21042;-88
2021/10/17 06:05:10;;;;;;;33.78;13.68;;;;;;;11.15;100.00;101117.72;1726650;83;20940;-88
2021/10/17 06:07:36;;;;;;;33.25;13.83;;;;;;;11.53;100.00;101133.52;1728297;81;21563;-87
2021/10/17 06:10:12;;;;;;;28.52;12.13;;;;;;;11.89;100.00;101133.95;1738507;81;21019;-88
2021/10/17 06:12:38;;;;;;;31.00;14.18;;;;;;;12.24;100.00;101122.66;1726411;82;21070;-88
2021/10/17 06:15:06;;;;;;;29.35;12.90;;;;;;;12.54;100.00;101122.06;1726402;83;21055;-86
2021/10/17 06:17:33;;;;;;;29.77;11.65;;;;;;;12.78;100.00;101125.73;1726792;82;21011;-87
2021/10/17 06:19:59;;;;;;;29.95;13.43;;;;;;;13.15;100.00;101126.48;1726721;83;21016;-86
2021/10/17 06:22:25;;;;;;;28.80;12.35;;;;;;;13.37;100.00;101132.28;1734676;82;21579;-85
2021/10/17 06:24:51;;;;;;;26.50;12.28;;;;;;;13.49;100.00;101124.73;1726790;83;21104;-86
2021/10/17 06:27:18;;;;;;;29.48;12.50;;;;;;;13.68;100.00;101129.14;1726834;82;21106;-86
2021/10/17 06:29:44;;;;;;;27.25;11.85;;;;;;;13.99;100.00;101126.47;1742282;81;21075;-86
2021/10/17 06:32:10;;;;;;;24.85;11.38;;;;;;;14.50;100.00;101135.44;1756962;81;21020;-86
2021/10/17 06:34:37;;;;;;;28.73;11.55;;;;;;;14.96;100.00;101135.36;1756672;81;21040;-86
2021/10/17 06:37:03;;;;;;;22.82;10.93;;;;;;;15.57;100.00;101138.94;1755687;80;22059;-87
2021/10/17 06:39:28;;;;;;;26.23;10.88;;;;;;;16.12;100.00;101134.28;1732211;81;20852;-87
2021/10/17 06:41:54;;;;;;;20.85;10.63;;;;;;;16.94;100.00;101134.89;1726542;82;21657;-85
2021/10/17 06:44:20;;;;;;;22.55;10.63;;;;;;;17.59;100.00;101128.91;1712445;81;21449;-86
2021/10/17 06:46:49;;;;;;;19.23;10.70;;;;;;;18.18;100.00;101126.70;1749995;81;21033;-86
2021/10/17 06:49:16;;;;;;;22.13;9.90;;;;;;;18.77;97.77;101126.54;1754238;81;21089;-87
2021/10/17 06:51:42;;;;;;;19.05;9.85;;;;;;;19.10;84.59;101125.89;1724125;81;21011;-87
2021/10/17 06:54:08;;;;;;;18.90;9.43;;;;;;;19.37;75.98;101126.41;1736677;81;21192;-87
2021/10/17 06:56:34;;;;;;;16.40;8.60;;;;;;;19.46;69.74;101129.23;1739313;81;21003;-87
2021/10/17 06:59:00;;;;;;;18.85;9.65;;;;;;;19.54;65.43;101134.55;1733136;80;21039;-88
2021/10/17 07:01:26;;;;;;;23.60;9.95;;;;;;;19.66;63.44;101132.92;1748698;82;21080;-87
2021/10/17 07:03:52;;;;;;;17.98;8.90;;;;;;;19.85;63.16;101127.84;1748566;82;21700;-87
2021/10/17 07:06:18;;;;;;;24.12;9.85;;;;;;;20.04;61.02;101123.59;1748892;80;21046;-86
2021/10/17 07:08:44;;;;;;;19.00;9.13;;;;;;;20.25;63.21;101121.16;1748823;82;21035;-86
2021/10/17 07:11:12;;;;;;;17.62;9.18;;;;;;;20.46;57.08;101129.66;1748460;81;20963;-88
2021/10/17 07:13:38;;;;;;;18.98;9.30;;;;;;;20.28;56.04;101124.64;1732740;81;21192;-87
2021/10/17 07:16:07;;;;;;;15.70;8.48;;;;;;;20.89;58.01;101120.88;1732882;82;20997;-89
2021/10/17 07:18:32;;;;;;;18.75;8.53;;;;;;;21.35;54.79;101118.17;1732287;82;21051;-87
2021/10/17 07:20:59;;;;;;;17.98;8.30;;;;;;;22.87;55.18;101123.39;1733022;81;21074;-90
2021/10/17 07:23:25;;;;;;;15.45;7.97;;;;;;;23.60;46.04;101120.98;1736943;81;21054;-93
2021/10/17 07:25:51;;;;;;;17.02;8.33;;;;;;;24.22;47.29;101123.47;1739317;82;21075;-89
2021/10/17 07:28:17;;;;;;;15.30;8.03;;;;;;;24.88;45.37;101117.05;1730834;82;20972;-93
2021/10/17 07:30:43;;;;;;;16.80;8.35;;;;;;;24.78;43.39;101112.81;1730729;82;20877;-89
2021/10/17 07:33:09;;;;;;;16.60;8.48;;;;;;;24.12;41.04;101119.74;1730690;82;20940;-88
2021/10/17 07:35:38;;;;;;;16.42;8.43;;;;;;;23.20;41.44;101122.77;1730983;82;21512;-87
2021/10/17 07:38:03;;;;;;;15.13;8.05;;;;;;;22.75;42.62;101122.48;1730135;82;21532;-87
2021/10/17 07:40:29;;;;;;;13.30;7.78;;;;;;;22.56;42.87;101125.05;1734157;82;20952;-88
2021/10/17 07:42:55;;;;;;;14.03;8.20;;;;;;;22.13;43.42;101125.11;1740295;82;21107;-88
2021/10/17 07:45:21;;;;;;;16.57;8.38;;;;;;;21.91;42.82;101124.70;1740077;82;20951;-87
2021/10/17 07:47:47;;;;;;;13.55;7.80;;;;;;;21.47;42.95;101127.45;1740284;82;21106;-87
2021/10/17 07:50:13;;;;;;;19.17;9.10;;;;;;;20.91;43.26;101126.83;1735177;82;21591;-87
2021/10/17 07:52:39;;;;;;;15.50;7.72;;;;;;;20.59;44.25;101124.70;1740512;82;21582;-87
2021/10/17 07:55:09;;;;;;;17.50;8.28;;;;;;;20.61;44.28;101125.17;1727252;81;21047;-88
2021/10/17 07:57:49;;;;;;;15.30;7.90;;;;;;;20.64;44.11;101131.39;1720023;82;21098;-86
2021/10/17 08:00:20;;;;;;;15.48;8.00;;;;;;;21.18;45.04;101124.42;1735161;82;21110;-87
2021/10/17 08:02:47;;;;;;;12.45;7.55;;;;;;;22.38;43.22;101117.97;1710689;82;21110;-88
2021/10/17 08:05:13;;;;;;;13.32;7.30;;;;;;;23.12;41.73;101116.77;1735148;82;21613;-88
2021/10/17 08:07:39;;;;;;;13.68;7.03;;;;;;;23.84;41.41;101114.02;1735763;82;21000;-87
2021/10/17 08:10:06;;;;;;;12.60;6.90;;;;;;;24.10;38.97;101117.92;1730893;82;20971;-87
2021/10/17 08:12:32;;;;;;;13.22;6.72;;;;;;;24.24;38.13;101117.85;1721465;82;21000;-89
2021/10/17 08:14:58;;;;;;;14.47;6.70;;;;;;;24.48;37.98;101114.38;1721220;83;21122;-88
2021/10/17 08:17:26;;;;;;;14.03;6.72;;;;;;;24.86;37.43;101120.17;1749217;80;21032;-86
2021/10/17 08:19:52;;;;;;;11.28;6.20;;;;;;;24.90;35.42;101118.33;1750865;81;21081;-86
2021/10/17 08:22:20;;;;;;;14.25;6.70;;;;;;;24.46;35.17;101109.77;1751214;81;20992;-87
2021/10/17 08:24:47;;;;;;;10.53;5.70;;;;;;;24.40;36.33;101118.58;1737001;82;21485;-87
2021/10/17 08:27:14;;;;;;;10.10;5.75;;;;;;;24.92;35.39;101114.66;1713055;82;21067;-87
2021/10/17 08:29:40;;;;;;;11.40;6.90;;;;;;;25.09;34.09;101115.00;1737640;82;21181;-86
2021/10/17 08:32:07;;;;;;;13.70;6.55;;;;;;;25.32;33.69;101113.95;1737529;82;21015;-87
2021/10/17 08:34:33;;;;;;;9.88;6.22;;;;;;;25.21;34.18;101114.22;1737602;82;21504;-87
2021/10/17 08:37:02;;;;;;;11.18;5.97;;;;;;;24.96;34.89;101107.07;1737749;82;20995;-86
2021/10/17 08:39:28;;;;;;;13.35;6.65;;;;;;;24.06;35.25;101116.97;1737199;82;21071;-86
2021/10/17 08:41:54;;;;;;;16.35;6.30;;;;;;;23.21;35.69;101118.89;1737621;82;20892;-86
2021/10/17 08:44:21;;;;;;;10.30;5.50;;;;;;;22.51;37.30;101125.80;1737614;82;21015;-86
2021/10/17 08:46:47;;;;;;;14.70;6.87;;;;;;;22.25;37.81;101114.30;1737738;82;21153;-85
2021/10/17 08:49:14;;;;;;;9.40;5.78;;;;;;;21.86;37.96;101113.34;1737757;82;21337;-86
2021/10/17 08:51:39;;;;;;;10.58;5.75;;;;;;;21.41;39.05;101119.67;1737954;82;21114;-85
2021/10/17 08:54:07;;;;;;;11.35;5.67;;;;;;;21.26;39.41;101112.11;1737586;82;20967;-86
2021/10/17 08:56:33;;;;;;;13.10;6.15;;;;;;;21.17;39.41;101113.22;1740029;82;21098;-85
2021/10/17 08:59:00;;;;;;;12.35;6.20;;;;;;;20.55;39.04;101109.44;1720768;82;21478;-85
2021/10/17 09:01:36;;;;;;;11.70;5.67;;;;;;;20.04;40.59;101108.54;1745817;82;21105;-85
2021/10/17 09:04:05;;;;;;;12.18;5.95;;;;;;;20.13;41.82;101110.77;1719265;83;21290;-84
2021/10/17 09:06:37;;;;;;;12.40;5.53;;;;;;;20.01;42.23;101105.06;1721038;83;21626;-85
2021/10/17 09:09:15;;;;;;;9.90;4.97;;;;;;;20.02;41.38;101097.09;1696996;83;21137;-84
2021/10/17 09:11:46;;;;;;;12.37;5.75;;;;;;;19.92;41.06;101101.69;1721407;83;21030;-85
2021/10/17 09:14:19;;;;;;;12.00;5.45;;;;;;;19.70;41.30;101098.36;1721411;83;21033;-85
2021/10/17 09:16:48;;;;;;;8.88;4.55;;;;;;;19.40;42.00;101093.56;1721429;83;21078;-85
2021/10/17 09:19:24;;;;;;;9.50;4.90;;;;;;;19.68;43.47;101094.34;1721200;83;21440;-85
2021/10/17 09:22:07;;;;;;;9.43;5.22;;;;;;;20.01;43.17;101081.80;1690084;83;21045;-86
2021/10/17 09:24:40;;;;;;;14.47;5.20;;;;;;;20.00;41.99;101077.42;1598393;89;21037;-85
2021/10/17 09:27:18;;;;;;;9.75;4.83;;;;;;;19.95;41.63;101078.38;1598284;89;21129;-84
2021/10/17 09:29:52;;;;;;;11.53;4.90;;;;;;;19.96;41.49;101076.69;1597858;89;21712;-85
2021/10/17 09:32:23;;;;;;;9.03;4.90;;;;;;;19.87;42.43;101070.91;1597811;89;21089;-84
2021/10/17 09:35:01;;;;;;;11.20;5.03;;;;;;;19.84;41.88;101072.34;1597850;89;21011;-84
2021/10/17 09:37:40;;;;;;;16.48;5.33;;;;;;;19.63;41.77;101069.81;1598059;89;21565;-84
2021/10/17 09:40:24;;;;;;;12.43;5.55;;;;;;;19.69;43.21;101065.87;1597851;89;21097;-85
2021/10/17 09:43:13;;;;;;;16.67;5.10;;;;;;;19.88;42.72;101069.78;1576818;91;21205;-85
2021/10/17 09:45:42;;;;;;;10.40;5.00;;;;;;;19.87;42.52;101069.55;1529277;93;21641;-84
2021/10/17 09:48:09;;;;;;;10.58;5.47;;;;;;;19.78;42.38;101065.38;1529296;93;21646;-85
2021/10/17 09:50:35;;;;;;;12.78;5.80;;;;;;;19.76;42.69;101065.44;1529386;93;21682;-85
2021/10/17 09:53:08;;;;;;;10.90;5.50;;;;;;;19.75;43.92;101063.27;1529809;93;21075;-85
2021/10/17 09:55:33;;;;;;;12.58;5.60;;;;;;;19.86;45.10;101065.20;1529746;92;21579;-84
2021/10/17 09:58:00;;;;;;;14.38;5.83;;;;;;;20.00;44.75;101058.28;1516547;93;21012;-84
2021/10/17 10:00:34;;;;;;;11.95;6.15;;;;;;;19.95;44.07;101060.59;1499256;93;21101;-84
2021/10/17 10:03:02;;;;;;;13.88;6.08;;;;;;;19.87;44.48;101062.70;1531697;92;21104;-84
2021/10/17 10:05:29;;;;;;;14.58;6.37;;;;;;;19.82;44.57;101066.92;1538739;92;21108;-84
2021/10/17 10:08:04;;;;;;;14.38;6.62;;;;;;;19.77;45.07;101065.14;1579053;90;21870;-86
2021/10/17 10:10:32;;;;;;;21.57;8.53;;;;;;;19.87;45.45;101064.88;1553731;92;21129;-84
2021/10/17 10:13:02;;;;;;;16.97;8.08;;;;;;;19.89;44.75;101069.48;1558512;92;21102;-84
2021/10/17 10:15:29;;;;;;;17.62;8.50;;;;;;;19.82;45.59;101065.55;1556076;90;21077;-85
2021/10/17 10:17:58;;;;;;;19.27;9.13;;;;;;;19.72;45.75;101067.98;1555759;92;21109;-84
2021/10/17 10:20:25;;;;;;;18.57;8.93;;;;;;;19.60;46.10;101071.23;1558644;92;21268;-84
2021/10/17 10:22:52;;;;;;;17.80;8.95;;;;;;;19.50;46.33;101068.19;1558466;92;21598;-85
2021/10/17 10:25:20;;;;;;;22.75;9.48;;;;;;;19.39;46.33;101076.36;1558563;92;21050;-84
2021/10/17 10:27:47;;;;;;;20.10;8.90;;;;;;;19.00;46.45;101072.81;1572593;89;21077;-84
2021/10/17 10:30:27;;;;;;;19.82;9.60;;;;;;;18.73;47.26;101066.23;1582930;90;21132;-85
2021/10/17 10:33:19;;;;;;;22.32;9.70;;;;;;;18.53;48.20;101062.50;1582941;90;21191;-85
2021/10/17 10:36:02;;;;;;;31.20;10.60;;;;;;;18.46;48.92;101064.83;1579775;90;21060;-85
2021/10/17 10:39:03;;;;;;;21.23;10.23;;;;;;;18.55;49.83;101060.29;1521096;91;21064;-84
2021/10/17 10:41:31;;;;;;;24.77;9.65;;;;;;;18.70;49.77;101060.55;1561822;87;21571;-85
2021/10/17 10:44:22;;;;;;;21.42;9.05;;;;;;;18.81;49.46;101064.17;1602457;89;21073;-85
2021/10/17 10:46:51;;;;;;;21.62;9.55;;;;;;;18.71;48.43;101061.63;1625222;86;21143;-84
2021/10/17 10:49:45;;;;;;;20.68;9.63;;;;;;;18.59;49.53;101062.69;1625488;88;21686;-85
2021/10/17 10:52:25;;;;;;;22.00;8.75;;;;;;;18.69;49.16;101064.41;1605909;87;21086;-83
2021/10/17 10:54:56;;;;;;;21.70;8.83;;;;;;;18.74;48.94;101058.88;1639461;86;21156;-87
2021/10/17 10:57:26;;;;;;;19.42;8.33;;;;;;;18.84;48.84;101060.03;1608014;88;21133;-86
2021/10/17 11:00:10;;;;;;;20.60;8.68;;;;;;;18.93;48.62;101059.56;1556976;90;21113;-89
2021/10/17 11:02:38;;;;;;;19.48;8.63;;;;;;;19.03;49.12;101054.44;1558482;90;21090;-87
2021/10/17 11:05:16;;;;;;;15.05;7.87;;;;;;;19.12;48.04;101062.73;1561111;90;21123;-86
2021/10/17 11:07:47;;;;;;;20.23;9.28;;;;;;;19.00;46.90;101059.98;1545125;92;21052;-89
2021/10/17 11:10:34;;;;;;;21.02;8.33;;;;;;;18.75;46.98;101056.39;1545174;92;21150;-86
2021/10/17 11:13:02;;;;;;;16.25;7.53;;;;;;;18.75;47.55;101053.10;1495707;95;22040;-87
2021/10/17 11:15:31;;;;;;;18.80;9.05;;;;;;;18.68;47.33;101049.11;1477277;96;21094;-88